createdAt,value
2023-02-24T00:01:03.099Z,-23447.06
2023-02-24T00:03:08.676Z,-23447.72
2023-02-24T00:05:11.370Z,-23447.88
2023-02-24T00:07:14.100Z,-23449.13
2023-02-24T00:09:20.083Z,-23447.72
2023-02-24T00:11:23.018Z,-23447.88
2023-02-24T00:13:25.754Z,-23447.38
2023-02-24T00:15:28.426Z,-23448.19
2023-02-24T00:17:32.411Z,-23449.78
2023-02-24T00:19:35.588Z,-23446.13
2023-02-24T00:21:38.293Z,-23446.75
2023-02-24T00:23:42.220Z,-23447.88
2023-02-24T00:25:44.874Z,-23446.91
2023-02-24T00:27:47.479Z,-23446.59
2023-02-24T00:29:50.207Z,-23447.53
2023-02-24T00:31:59.123Z,-23448.03
2023-02-24T00:34:03.544Z,-23448.81
2023-02-24T00:36:10.825Z,-23445.47
2023-02-24T00:38:13.593Z,-23448.81
2023-02-24T00:40:17.032Z,-23449.78
2023-02-24T00:42:19.781Z,-23451.50
2023-02-24T00:44:24.351Z,-23447.53
2023-02-24T00:46:31.721Z,-23446.91
2023-02-24T00:48:35.228Z,-23446.59
2023-02-24T00:50:40.015Z,-23449.13
2023-02-24T00:52:43.138Z,-23446.91
2023-02-24T00:54:46.882Z,-23448.81
2023-02-24T00:56:50.473Z,-23448.03
2023-02-24T00:58:54.342Z,-23443.41
2023-02-24T01:00:57.673Z,-23443.41
2023-02-24T01:03:00.680Z,-23443.09
2023-02-24T01:05:05.012Z,-23441.03
2023-02-24T01:07:11.006Z,-23443.09
2023-02-24T01:09:17.157Z,-23442.16
2023-02-24T01:11:38.839Z,-23445.66
2023-02-24T01:13:41.549Z,-23444.84
2023-02-24T01:15:44.253Z,-23445.97
2023-02-24T01:17:47.072Z,-23444.84
2023-02-24T01:19:50.474Z,-23442.94
2023-02-24T01:21:55.048Z,-23439.28
2023-02-24T01:23:59.025Z,-23441.53
2023-02-24T01:26:01.725Z,-23440.56
2023-02-24T01:28:04.549Z,-23439.78
2023-02-24T01:30:09.181Z,-23438.66
2023-02-24T01:32:16.913Z,-23436.13
2023-02-24T01:34:19.901Z,-23435.47
2023-02-24T01:36:25.635Z,-23434.22
2023-02-24T01:38:28.367Z,-23436.75
2023-02-24T01:40:32.642Z,-23438.97
2023-02-24T01:42:34.293Z,-23435.16
2023-02-24T01:45:15.971Z,-23433.41
2023-02-24T01:47:21.365Z,-23435.81
2023-02-24T01:49:30.323Z,-23435.81
2023-02-24T01:51:37.040Z,-23434.22
2023-02-24T01:53:39.528Z,-23435.81
2023-02-24T01:55:49.139Z,-23439.78
2023-02-24T01:57:54.251Z,-23437.72
2023-02-24T02:00:02.042Z,-23430.09
2023-02-24T02:02:08.764Z,-23433.28
2023-02-24T02:04:17.830Z,-23436.44
2023-02-24T02:06:20.547Z,-23430.88
2023-02-24T02:08:24.840Z,-23428.50
2023-02-24T02:10:28.977Z,-23431.34
2023-02-24T02:12:37.070Z,-23430.41
2023-02-24T02:14:47.502Z,-15401.97
2023-02-24T02:17:04.146Z,-14758.75
2023-02-24T02:19:35.009Z,-14435.66
2023-02-24T02:22:02.399Z,-7997.16
2023-02-24T02:24:31.424Z,-6708.47
2023-02-24T02:27:07.855Z,-6708.16
2023-02-24T02:29:22.936Z,-6386.06
2023-02-24T02:31:46.508Z,-10251.66
2023-02-24T02:34:08.948Z,-23430.72
2023-02-24T02:36:19.458Z,-23427.53
2023-02-24T02:38:30.817Z,-23424.38
2023-02-24T02:40:41.997Z,-23423.72
2023-02-24T02:42:51.972Z,-23424.06
2023-02-24T02:45:05.336Z,-23425.97
2023-02-24T02:47:14.080Z,-23424.38
2023-02-24T02:49:23.117Z,-23424.06
2023-02-24T02:51:31.006Z,-23421.81
2023-02-24T02:53:39.331Z,-23421.81
2023-02-24T02:55:47.623Z,-23419.28
2023-02-24T02:57:55.301Z,-23419.75
2023-02-24T03:00:01.950Z,-23420.25
2023-02-24T03:02:14.762Z,-23418.03
2023-02-24T03:04:22.859Z,-22418.81
2023-02-24T03:06:28.866Z,-19216.41
2023-02-24T03:08:37.167Z,-21485.88
2023-02-24T03:10:44.716Z,-23418.97
2023-02-24T03:12:51.700Z,-23421.50
2023-02-24T03:15:00.117Z,-23424.06
2023-02-24T03:17:06.545Z,-23420.88
2023-02-24T03:19:13.542Z,-23417.06
2023-02-24T03:21:23.061Z,-23415.47
2023-02-24T03:23:31.900Z,-23416.44
2023-02-24T03:25:44.524Z,-23416.75
2023-02-24T03:27:51.564Z,-23417.84
2023-02-24T03:29:59.460Z,-23419.75
2023-02-24T03:32:06.490Z,-23416.59
2023-02-24T03:34:15.276Z,-23305.91
2023-02-24T03:36:19.255Z,-23419.59
2023-02-24T03:38:24.453Z,-22432.53
2023-02-24T03:40:36.011Z,-23306.06
2023-02-24T03:42:42.199Z,-23421.81
2023-02-24T03:44:45.774Z,-21541.88
2023-02-24T03:46:48.605Z,-22654.47
2023-02-24T03:48:58.199Z,-20552.56
2023-02-24T03:51:01.055Z,-12823.38
2023-02-24T03:53:17.221Z,-11538.06
2023-02-24T03:55:33.215Z,-20932.03
2023-02-24T03:57:55.669Z,-22521.09
2023-02-24T04:00:25.719Z,-23421.81
2023-02-24T04:02:32.061Z,-23418.50
2023-02-24T04:04:41.659Z,-23416.09
2023-02-24T04:06:49.892Z,-16034.72
2023-02-24T04:09:01.998Z,-5419.03
2023-02-24T04:11:13.208Z,-7029.72
2023-02-24T04:13:21.189Z,-8641.00
2023-02-24T04:15:29.541Z,-22537.78
2023-02-24T04:17:39.317Z,-23421.19
2023-02-24T04:19:45.671Z,-23422.78
2023-02-24T04:21:49.412Z,-23426.13
2023-02-24T04:23:53.114Z,-23426.59
2023-02-24T04:25:57.211Z,-23428.03
2023-02-24T04:28:03.076Z,-23423.09
2023-02-24T04:30:10.673Z,-23424.69
2023-02-24T04:32:15.291Z,-23425.63
2023-02-24T04:34:20.139Z,-23427.22
2023-02-24T04:36:23.058Z,-23426.75
2023-02-24T04:38:26.115Z,-23426.75
2023-02-24T04:40:28.893Z,-23427.72
2023-02-24T04:42:32.823Z,-23423.41
2023-02-24T04:44:36.045Z,-23419.94
2023-02-24T04:46:38.737Z,-23424.38
2023-02-24T04:48:41.410Z,-23418.97
2023-02-24T04:50:45.054Z,-23428.34
2023-02-24T04:52:50.126Z,-23421.81
2023-02-24T04:54:52.771Z,-23420.88
2023-02-24T04:56:56.945Z,-23417.53
2023-02-24T04:59:02.706Z,-17319.50
2023-02-24T05:01:11.082Z,-1227.78
2023-02-24T05:03:13.744Z,-1872.84
2023-02-24T05:05:17.486Z,-2840.38
2023-02-24T05:07:20.204Z,-3807.56
2023-02-24T05:09:22.848Z,-9928.09
2023-02-24T05:11:25.485Z,-9927.13
2023-02-24T05:13:31.561Z,2642.72
2023-02-24T05:15:39.256Z,18486.78
2023-02-24T05:17:42.097Z,32129.41
2023-02-24T05:20:02.227Z,35706.25
2023-02-24T05:22:07.036Z,39941.88
2023-02-24T05:24:11.539Z,42877.16
2023-02-24T05:26:16.830Z,42870.25
2023-02-24T05:28:22.140Z,45819.69
2023-02-24T05:30:25.228Z,40928.88
2023-02-24T05:32:29.418Z,35388.16
2023-02-24T05:34:34.465Z,33113.78
2023-02-24T05:36:40.246Z,31154.03
2023-02-24T05:38:43.983Z,35380.72
2023-02-24T05:40:48.510Z,36680.28
2023-02-24T05:42:51.811Z,37336.63
2023-02-24T05:44:54.651Z,37667.41
2023-02-24T05:46:59.491Z,38966.78
2023-02-24T05:49:08.623Z,39942.59
2023-02-24T05:51:12.638Z,39290.84
2023-02-24T05:53:15.446Z,40585.31
2023-02-24T05:55:18.164Z,47097.09
2023-02-24T05:57:21.323Z,55595.28
2023-02-24T05:59:24.054Z,59196.81
2023-02-24T06:01:30.123Z,60189.13
2023-02-24T06:03:35.560Z,59545.09
2023-02-24T06:05:39.776Z,55950.94
2023-02-24T06:07:43.069Z,48434.56
2023-02-24T06:09:45.916Z,41257.53
2023-02-24T06:11:48.573Z,35068.69
2023-02-24T06:13:52.225Z,32778.75
2023-02-24T06:15:57.108Z,33107.09
2023-02-24T06:18:00.868Z,31812.38
2023-02-24T06:20:13.094Z,26610.47
2023-02-24T06:22:19.550Z,24988.59
2023-02-24T06:24:22.230Z,19469.00
2023-02-24T06:26:25.060Z,17526.91
2023-02-24T06:28:28.330Z,12988.81
2023-02-24T06:30:32.781Z,14287.59
2023-02-24T06:32:36.245Z,9107.28
2023-02-24T06:34:40.213Z,7810.41
2023-02-24T06:36:43.583Z,20113.63
2023-02-24T06:38:49.379Z,24008.28
2023-02-24T06:40:52.531Z,20766.25
2023-02-24T06:42:55.233Z,14935.25
2023-02-24T06:44:57.940Z,3937.06
2023-02-24T06:47:01.158Z,-1872.84
2023-02-24T06:49:03.986Z,-12180.44
2023-02-24T06:51:07.872Z,-17362.06
2023-02-24T06:53:16.924Z,-7673.41
2023-02-24T06:55:26.944Z,1030.66
2023-02-24T06:57:32.763Z,1998.75
2023-02-24T06:59:35.421Z,62.94
2023-02-24T07:01:45.007Z,-4452.19
2023-02-24T07:04:03.303Z,-8961.53
2023-02-24T07:06:20.478Z,-4129.84
2023-02-24T07:08:27.151Z,12337.84
2023-02-24T07:10:31.134Z,24327.09
2023-02-24T07:12:34.149Z,25948.53
2023-02-24T07:14:36.977Z,31801.81
2023-02-24T07:16:41.929Z,31804.75
2023-02-24T07:18:48.684Z,32126.72
2023-02-24T07:20:51.789Z,33760.66
2023-02-24T07:22:54.500Z,36691.97
2023-02-24T07:25:00.609Z,37018.34
2023-02-24T07:27:06.942Z,33113.78
2023-02-24T07:29:11.523Z,32139.16
2023-02-24T07:31:17.426Z,31161.81
2023-02-24T07:33:20.373Z,28564.94
2023-02-24T07:35:23.884Z,24662.69
2023-02-24T07:37:31.520Z,30508.81
2023-02-24T07:39:34.750Z,30517.56
2023-02-24T07:41:37.806Z,28886.25
2023-02-24T07:43:43.984Z,27586.22
2023-02-24T07:45:47.304Z,35705.59
2023-02-24T07:47:50.303Z,46777.41
2023-02-24T07:49:52.889Z,54968.31
2023-02-24T07:51:57.845Z,54979.44
2023-02-24T07:54:02.723Z,49102.75
2023-02-24T07:56:10.748Z,38332.50
2023-02-24T07:58:13.336Z,30837.72
2023-02-24T08:00:19.401Z,32788.69
2023-02-24T08:02:23.793Z,32460.63
2023-02-24T08:04:28.659Z,41253.81
2023-02-24T08:06:37.870Z,46812.84
2023-02-24T08:08:57.793Z,41920.31
2023-02-24T08:11:04.149Z,39969.25
2023-02-24T08:13:07.043Z,36061.31
2023-02-24T08:15:17.395Z,30202.13
2023-02-24T08:17:26.144Z,26301.47
2023-02-24T08:19:33.314Z,23052.72
2023-02-24T08:21:41.176Z,17863.72
2023-02-24T08:23:45.695Z,10732.59
2023-02-24T08:25:48.454Z,1356.47
2023-02-24T08:28:12.269Z,-2517.72
2023-02-24T08:30:23.306Z,17851.78
2023-02-24T08:32:33.631Z,25329.91
2023-02-24T08:34:36.589Z,14946.69
2023-02-24T08:36:39.246Z,1032.78
2023-02-24T08:38:42.296Z,-7031.16
2023-02-24T08:40:51.428Z,-15074.66
2023-02-24T08:42:54.126Z,-7353.19
2023-02-24T08:44:58.131Z,-13148.50
2023-02-24T08:47:05.202Z,-21781.91
2023-02-24T08:49:10.901Z,-23427.53
2023-02-24T08:51:17.825Z,-23428.34
2023-02-24T08:53:20.968Z,-23431.34
2023-02-24T08:55:30.159Z,-23432.31
2023-02-24T08:57:35.954Z,-23441.03
2023-02-24T08:59:38.911Z,-23438.97
2023-02-24T09:02:04.273Z,-23440.56
2023-02-24T09:04:10.667Z,-23454.22
2023-02-24T09:06:16.786Z,-23460.09
2023-02-24T09:08:24.079Z,-23496.38
2023-02-24T09:10:28.574Z,-23508.75
2023-02-24T09:12:31.917Z,-23504.00
2023-02-24T09:14:37.839Z,-23502.09
2023-02-24T09:16:52.403Z,-23519.50
2023-02-24T09:19:08.938Z,-23532.97
2023-02-24T09:21:31.870Z,-23543.41
2023-02-24T09:23:45.812Z,-23521.09
2023-02-24T09:25:50.449Z,-23519.34
2023-02-24T09:27:56.912Z,-23479.25
2023-02-24T09:30:07.981Z,-23479.25
2023-02-24T09:32:14.770Z,-23483.06
2023-02-24T09:34:19.916Z,-23491.00
2023-02-24T09:36:30.102Z,-23488.47
2023-02-24T09:39:02.354Z,-23480.22
2023-02-24T09:41:29.865Z,-23467.22
2023-02-24T09:43:44.106Z,-23466.56
2023-02-24T09:46:01.887Z,-23477.03
2023-02-24T09:48:10.434Z,-23475.31
2023-02-24T09:50:46.860Z,-23483.22
2023-02-24T09:52:47.482Z,-23482.91
2023-02-24T09:55:14.519Z,-23482.75
2023-02-24T09:57:25.300Z,-23476.88
2023-02-24T09:59:34.748Z,-23482.13
2023-02-24T10:01:44.451Z,-23482.13
2023-02-24T10:03:51.911Z,-23475.94
2023-02-24T10:06:00.634Z,-23480.84
2023-02-24T10:08:08.194Z,-23478.94
2023-02-24T10:10:20.446Z,-23481.81
2023-02-24T10:12:28.802Z,-23487.50
2023-02-24T10:14:43.798Z,-23481.16
2023-02-24T10:17:08.172Z,-23481.66
2023-02-24T10:19:25.290Z,-23487.50
2023-02-24T10:21:48.388Z,-23475.63
2023-02-24T10:24:06.840Z,-23477.19
2023-02-24T10:26:30.380Z,-23490.69
2023-02-24T10:28:40.589Z,-23498.13
2023-02-24T10:31:01.586Z,-23511.13
2023-02-24T10:33:06.980Z,-23511.28
2023-02-24T10:35:14.497Z,-23505.09
2023-02-24T10:37:28.150Z,-23514.75
2023-02-24T10:39:33.464Z,-23505.56
2023-02-24T10:41:45.747Z,-23511.59
2023-02-24T10:43:56.148Z,-23500.03
2023-02-24T10:46:07.076Z,-23498.44
2023-02-24T10:48:11.816Z,-23489.41
2023-02-24T10:50:23.608Z,-23488.94
2023-02-24T10:52:50.816Z,-23481.00
2023-02-24T10:55:05.305Z,-23464.38
2023-02-24T10:57:18.525Z,-23458.66
2023-02-24T10:59:38.758Z,-23460.25
2023-02-24T11:01:54.940Z,-23452.94
2023-02-24T11:04:22.834Z,-23452.00
2023-02-24T11:06:52.600Z,-23454.69
2023-02-24T11:09:19.033Z,-23451.66
2023-02-24T11:11:29.778Z,-23459.91
2023-02-24T11:13:50.383Z,-23464.84
2023-02-24T11:16:13.603Z,-23467.38
2023-02-24T11:18:20.494Z,-23458.03
2023-02-24T11:20:46.075Z,-23472.59
2023-02-24T11:22:55.787Z,-23467.22
2023-02-24T11:25:01.794Z,-23478.31
2023-02-24T11:27:06.516Z,-23470.38
2023-02-24T11:29:27.743Z,-23463.56
2023-02-24T11:31:46.592Z,-23465.63
2023-02-24T11:34:00.800Z,-23469.75
2023-02-24T11:36:12.682Z,-23470.69
2023-02-24T11:38:28.674Z,-23473.88
2023-02-24T11:40:38.322Z,-23463.88
2023-02-24T11:42:46.826Z,-23466.56
2023-02-24T11:44:54.468Z,-23474.19
2023-02-24T11:47:01.533Z,-23465.63
2023-02-24T11:49:15.626Z,-23455.63
2023-02-24T11:51:23.492Z,-23460.41
2023-02-24T11:53:31.437Z,-23455.78
2023-02-24T11:55:42.388Z,-23467.06
2023-02-24T11:57:51.791Z,-23462.47
2023-02-24T12:00:04.310Z,-23471.50
2023-02-24T12:02:17.717Z,-23475.16
2023-02-24T12:04:26.437Z,-23471.03
2023-02-24T12:06:35.261Z,-23469.91
2023-02-24T12:08:42.453Z,-23472.91
2023-02-24T12:10:50.980Z,-23484.19
2023-02-24T12:13:04.115Z,-23483.72
2023-02-24T12:15:14.586Z,-23478.94
2023-02-24T12:17:23.793Z,-23502.56
2023-02-24T12:19:34.528Z,-23506.22
2023-02-24T12:21:41.824Z,-23510.97
2023-02-24T12:23:46.589Z,-23502.25
2023-02-24T12:26:01.977Z,-23517.63
2023-02-24T12:28:19.335Z,-23524.25
2023-02-24T12:30:48.784Z,-23520.78
2023-02-24T12:33:01.649Z,-23523.00
2023-02-24T12:35:13.990Z,-23528.06
2023-02-24T12:37:30.851Z,-23523.94
2023-02-24T12:39:44.183Z,-23511.28
2023-02-24T12:41:58.967Z,-23516.34
2023-02-24T12:44:16.147Z,-23517.94
2023-02-24T12:46:24.890Z,-23497.97
2023-02-24T12:48:44.696Z,-23509.38
2023-02-24T12:50:55.075Z,-23517.13
2023-02-24T12:53:06.353Z,-23501.47
2023-02-24T12:55:17.319Z,-23510.81
2023-02-24T12:57:28.244Z,-23523.31
2023-02-24T12:59:38.841Z,-23518.88
2023-02-24T13:01:49.307Z,-23503.03
2023-02-24T13:04:22.909Z,-23501.13
2023-02-24T13:06:37.780Z,-23507.94
2023-02-24T13:08:48.359Z,-23497.19
2023-02-24T13:11:00.472Z,-23495.13
2023-02-24T13:13:11.811Z,-23489.72
2023-02-24T13:15:22.154Z,-23486.72
2023-02-24T13:17:27.072Z,-23497.66
2023-02-24T13:19:30.910Z,-23500.50
2023-02-24T13:21:34.836Z,-23503.03
2023-02-24T13:23:41.569Z,-23505.91
2023-02-24T13:25:52.030Z,-23503.34
2023-02-24T13:28:01.217Z,-23504.94
2023-02-24T13:30:08.517Z,-23492.59
2023-02-24T13:32:28.434Z,-23495.44
2023-02-24T13:34:33.988Z,-23499.41
2023-02-24T13:36:47.482Z,-23493.53
2023-02-24T13:38:52.254Z,-23485.28
2023-02-24T13:40:55.304Z,-23488.16
2023-02-24T13:43:00.056Z,-23491.47
2023-02-24T13:45:18.259Z,-23489.25
2023-02-24T13:48:08.773Z,-23482.75
2023-02-24T13:50:25.370Z,-23487.34
2023-02-24T13:52:42.833Z,-23490.03
2023-02-24T13:55:04.135Z,-23487.19
2023-02-24T13:57:45.553Z,-23485.91
2023-02-24T14:00:10.259Z,-23492.25
2023-02-24T14:02:16.303Z,-23492.91
2023-02-24T14:04:24.326Z,-23491.63
2023-02-24T14:06:28.944Z,-23492.91
2023-02-24T14:08:42.343Z,-23494.81
2023-02-24T14:10:47.142Z,-23488.16
2023-02-24T14:12:51.558Z,-23487.84
2023-02-24T14:14:55.411Z,-23490.03
2023-02-24T14:16:58.275Z,-23486.56
2023-02-24T14:19:02.795Z,-23490.38
2023-02-24T14:21:05.752Z,-23487.66
2023-02-24T14:23:24.168Z,-23488.16
2023-02-24T14:25:29.909Z,-23490.38
2023-02-24T14:27:33.072Z,-23486.88
2023-02-24T14:29:44.187Z,-23490.69
2023-02-24T14:31:51.942Z,-23487.03
2023-02-24T14:33:58.961Z,-23484.34
2023-02-24T14:36:02.522Z,-23484.50
2023-02-24T14:38:06.008Z,-23474.19
2023-02-24T14:40:17.173Z,-23469.13
2023-02-24T14:42:21.869Z,-23465.63
2023-02-24T14:44:26.935Z,-23466.56
2023-02-24T14:46:29.601Z,-23467.53
2023-02-24T14:48:32.909Z,-23471.03
2023-02-24T14:50:36.456Z,-23477.03
2023-02-24T14:52:43.328Z,-23471.34
2023-02-24T14:54:49.622Z,-23471.97
2023-02-24T14:56:53.912Z,-23471.50
2023-02-24T14:59:01.658Z,-23471.03
2023-02-24T15:01:07.940Z,-23472.13
2023-02-24T15:03:14.920Z,-23474.97
2023-02-24T15:05:17.871Z,-23470.69
2023-02-24T15:07:24.570Z,-23473.56
2023-02-24T15:09:28.856Z,-23479.25
2023-02-24T15:11:33.754Z,-23478.16
2023-02-24T15:13:40.506Z,-23472.91
2023-02-24T15:15:43.497Z,-23476.09
2023-02-24T15:17:46.939Z,-23479.09
2023-02-24T15:19:54.513Z,-23472.28
2023-02-24T15:21:57.180Z,-23473.41
2023-02-24T15:24:01.554Z,-23480.53
2023-02-24T15:26:06.063Z,-23473.88
2023-02-24T15:28:24.384Z,-23476.41
2023-02-24T15:30:34.872Z,-23471.03
2023-02-24T15:32:39.141Z,-23469.75
2023-02-24T15:34:46.421Z,-23471.19
2023-02-24T15:36:51.230Z,-23476.09
2023-02-24T15:38:56.705Z,-23475.47
2023-02-24T15:41:02.218Z,-23472.91
2023-02-24T15:43:11.719Z,-23471.03
2023-02-24T15:45:28.392Z,-23464.19
2023-02-24T15:47:42.687Z,-23469.75
2023-02-24T15:49:45.385Z,-23472.28
2023-02-24T15:51:50.285Z,-23471.97
2023-02-24T15:53:52.922Z,-23472.91
2023-02-24T15:55:55.632Z,-23470.53
2023-02-24T15:58:01.696Z,-23467.06
2023-02-24T16:00:09.404Z,-23470.69
2023-02-24T16:02:15.792Z,-23467.22
2023-02-24T16:04:20.997Z,-23469.44
2023-02-24T16:06:25.942Z,-23470.38
2023-02-24T16:08:28.993Z,-23462.13
2023-02-24T16:10:32.263Z,-23453.25
2023-02-24T16:12:36.959Z,-23451.19
2023-02-24T16:14:41.025Z,-23455.97
2023-02-24T16:16:44.028Z,-23453.72
2023-02-24T16:18:46.709Z,-23453.41
2023-02-24T16:20:54.178Z,-23449.78
2023-02-24T16:22:58.787Z,-23445.31
2023-02-24T16:25:01.554Z,-23439.59
2023-02-24T16:27:04.250Z,-23437.72
2023-02-24T16:29:11.471Z,-23434.06
2023-02-24T16:31:14.404Z,-23434.22
2023-02-24T16:33:19.098Z,-23434.84
2023-02-24T16:35:22.085Z,-23434.69
2023-02-24T16:37:29.303Z,-23434.38
2023-02-24T16:39:32.051Z,-23436.44
2023-02-24T16:41:34.672Z,-23434.06
2023-02-24T16:43:37.646Z,-23431.03
2023-02-24T16:45:41.562Z,-23428.50
2023-02-24T16:47:45.285Z,-23425.00
2023-02-24T16:49:48.139Z,-23422.47
2023-02-24T16:51:50.725Z,-23425.47
2023-02-24T16:53:54.743Z,-23420.25
2023-02-24T16:55:57.947Z,-23424.84
2023-02-24T16:58:00.661Z,-23419.44
2023-02-24T17:00:05.252Z,-23423.09
2023-02-24T17:02:11.619Z,-23426.13
2023-02-24T17:04:14.319Z,-23420.56
2023-02-24T17:06:17.611Z,-23415.16
2023-02-24T17:08:21.330Z,-23419.44
2023-02-24T17:10:26.442Z,-23418.34
2023-02-24T17:12:29.260Z,-23417.38
2023-02-24T17:14:32.118Z,-23414.22
2023-02-24T17:16:34.826Z,-23412.63
2023-02-24T17:18:37.813Z,-23415.78
2023-02-24T17:20:42.218Z,-23420.88
2023-02-24T17:22:45.834Z,-23418.97
2023-02-24T17:24:48.486Z,-23413.56
2023-02-24T17:26:52.584Z,-23415.31
2023-02-24T17:28:55.568Z,-23412.63
2023-02-24T17:30:58.577Z,-23415.31
2023-02-24T17:33:01.545Z,-23412.31
2023-02-24T17:35:04.311Z,-23411.97
2023-02-24T17:37:06.951Z,-23411.66
2023-02-24T17:39:09.575Z,-23410.25
2023-02-24T17:41:12.318Z,-23412.31
2023-02-24T17:43:16.661Z,-23409.91
2023-02-24T17:45:19.563Z,-23409.28
2023-02-24T17:47:22.394Z,-23409.91
2023-02-24T17:49:25.167Z,-23408.66
2023-02-24T17:51:28.086Z,-23408.81
2023-02-24T17:53:31.288Z,-23408.16
2023-02-24T17:55:34.040Z,-23409.44
2023-02-24T17:57:37.219Z,-23408.50
2023-02-24T17:59:43.368Z,-23409.75
2023-02-24T18:01:46.139Z,-23408.16
2023-02-24T18:03:48.856Z,-23406.41
2023-02-24T18:05:58.960Z,-23407.53
2023-02-24T18:08:01.623Z,-23406.09
2023-02-24T18:10:05.048Z,-23405.00
2023-02-24T18:12:08.270Z,-23403.72
2023-02-24T18:14:10.911Z,-23405.78
2023-02-24T18:16:16.585Z,-23405.31
2023-02-24T18:18:19.322Z,-23405.63
2023-02-24T18:20:22.165Z,-23408.00
2023-02-24T18:22:25.125Z,-23401.66
2023-02-24T18:24:27.891Z,-23401.81
2023-02-24T18:26:30.627Z,-23402.44
2023-02-24T18:28:33.434Z,-23403.72
2023-02-24T18:30:36.322Z,-23401.81
2023-02-24T18:32:44.416Z,-23405.63
2023-02-24T18:34:47.524Z,-23403.09
2023-02-24T18:36:50.274Z,-23406.91
2023-02-24T18:38:53.594Z,-23406.91
2023-02-24T18:41:00.398Z,-23407.22
2023-02-24T18:43:03.000Z,-23405.94
2023-02-24T18:45:06.508Z,-23406.28
2023-02-24T18:47:10.224Z,-23404.53
2023-02-24T18:49:14.294Z,-23405.63
2023-02-24T18:51:19.652Z,-23405.31
2023-02-24T18:53:23.682Z,-23405.47
2023-02-24T18:55:26.334Z,-23402.94
2023-02-24T18:57:29.281Z,-23407.38
2023-02-24T18:59:31.970Z,-23407.06
2023-02-24T19:01:36.526Z,-23406.28
2023-02-24T19:03:39.247Z,-23404.03
2023-02-24T19:05:43.320Z,-23402.44
2023-02-24T19:07:45.989Z,-23402.28
2023-02-24T19:09:48.932Z,-23401.66
2023-02-24T19:11:52.415Z,-23401.19
2023-02-24T19:13:55.214Z,-23400.38
2023-02-24T19:16:00.756Z,-23404.69
2023-02-24T19:18:03.667Z,-23397.22
2023-02-24T19:20:08.402Z,-23398.97
2023-02-24T19:22:12.380Z,-23397.06
2023-02-24T19:24:15.280Z,-23402.94
2023-02-24T19:26:19.898Z,-23401.50
2023-02-24T19:28:22.851Z,-23401.34
2023-02-24T19:30:25.600Z,-23401.97
2023-02-24T19:32:28.425Z,-23401.50
2023-02-24T19:34:31.204Z,-23398.78
2023-02-24T19:36:36.057Z,-23390.84
2023-02-24T19:38:42.004Z,-23393.88
2023-02-24T19:40:45.661Z,-23393.09
2023-02-24T19:42:51.085Z,-23391.16
2023-02-24T19:44:54.016Z,-23390.53
2023-02-24T19:46:57.092Z,-23394.81
2023-02-24T19:48:59.896Z,-23397.06
2023-02-24T19:51:08.135Z,-23394.81
2023-02-24T19:53:10.793Z,-23390.22
2023-02-24T19:55:14.959Z,-23391.50
2023-02-24T19:57:17.803Z,-23392.75
2023-02-24T19:59:20.507Z,-23392.13
2023-02-24T20:01:24.229Z,-23390.38
2023-02-24T20:03:28.322Z,-23392.91
2023-02-24T20:05:31.050Z,-23390.84
2023-02-24T20:07:34.634Z,-23394.34
2023-02-24T20:09:37.338Z,-23391.81
2023-02-24T20:11:42.298Z,-23394.50
2023-02-24T20:13:45.295Z,-23395.47
2023-02-24T20:15:47.924Z,-23387.69
2023-02-24T20:17:50.673Z,-23386.72
2023-02-24T20:19:53.450Z,-23388.78
2023-02-24T20:21:56.049Z,-23389.75
2023-02-24T20:24:00.715Z,-23391.34
2023-02-24T20:26:03.407Z,-23387.84
2023-02-24T20:28:07.366Z,-23384.97
2023-02-24T20:30:11.724Z,-23391.50
2023-02-24T20:32:14.558Z,-23389.44
2023-02-24T20:34:17.720Z,-23391.66
2023-02-24T20:36:23.983Z,-23387.53
2023-02-24T20:38:26.906Z,-23389.09
2023-02-24T20:40:29.570Z,-23391.66
2023-02-24T20:42:32.210Z,-23384.50
2023-02-24T20:44:36.265Z,-23383.38
2023-02-24T20:46:39.009Z,-23388.78
2023-02-24T20:48:42.067Z,-23386.56
2023-02-24T20:50:44.797Z,-23385.59
2023-02-24T20:52:47.584Z,-23387.69
2023-02-24T20:54:50.344Z,-23387.19
2023-02-24T20:56:53.494Z,-23387.84
2023-02-24T20:59:00.854Z,-23383.69
2023-02-24T21:01:05.363Z,-23382.75
2023-02-24T21:03:11.902Z,-23384.66
2023-02-24T21:05:19.695Z,-23382.44
2023-02-24T21:07:22.323Z,-23380.84
2023-02-24T21:09:25.076Z,-23383.22
2023-02-24T21:11:29.757Z,-23382.59
2023-02-24T21:13:32.588Z,-23379.41
2023-02-24T21:15:35.250Z,-23383.53
2023-02-24T21:17:39.339Z,-23385.44
2023-02-24T21:19:43.194Z,-23379.09
2023-02-24T21:21:45.804Z,-23380.22
2023-02-24T21:23:48.942Z,-23379.88
2023-02-24T21:25:52.437Z,-23380.22
2023-02-24T21:27:55.675Z,-23378.31
2023-02-24T21:29:58.310Z,-23370.03
2023-02-24T21:32:01.172Z,-23360.50
2023-02-24T21:34:05.333Z,-23351.41
2023-02-24T21:36:10.205Z,-23333.75
2023-02-24T21:38:12.963Z,-23326.44
2023-02-24T21:40:17.614Z,-23325.47
2023-02-24T21:42:22.161Z,-23329.47
2023-02-24T21:44:24.875Z,-23322.13
2023-02-24T21:46:28.436Z,-23318.97
2023-02-24T21:48:31.559Z,-23315.28
2023-02-24T21:50:35.556Z,-23319.75
2023-02-24T21:52:38.435Z,-23317.84
2023-02-24T21:54:42.318Z,-23307.31
2023-02-24T21:56:44.997Z,-23308.44
2023-02-24T21:58:49.449Z,-23303.03
2023-02-24T22:00:52.017Z,-23306.06
2023-02-24T22:02:56.409Z,-23299.03
2023-02-24T22:04:59.057Z,-23301.75
2023-02-24T22:07:03.024Z,-23300.00
2023-02-24T22:09:07.635Z,-23305.09
2023-02-24T22:11:11.675Z,-23301.59
2023-02-24T22:13:14.256Z,-23297.47
2023-02-24T22:15:16.935Z,-23300.31
2023-02-24T22:17:19.594Z,-23297.94
2023-02-24T22:19:22.193Z,-23297.13
2023-02-24T22:21:26.880Z,-23287.41
2023-02-24T22:23:31.116Z,-23288.22
2023-02-24T22:25:35.753Z,-23284.22
2023-02-24T22:27:38.799Z,-23285.66
2023-02-24T22:29:42.685Z,-23293.94
2023-02-24T22:31:49.445Z,-23296.81
2023-02-24T22:33:52.828Z,-23295.22
2023-02-24T22:35:55.547Z,-23288.53
2023-02-24T22:37:58.377Z,-23294.09
2023-02-24T22:40:02.592Z,-23293.63
2023-02-24T22:42:05.299Z,-23295.22
2023-02-24T22:44:08.525Z,-23297.78
2023-02-24T22:46:14.012Z,-23295.38
2023-02-24T22:48:16.855Z,-23285.97
2023-02-24T22:50:19.826Z,-23285.34
2023-02-24T22:52:22.500Z,-23289.97
2023-02-24T22:54:25.196Z,-23285.03
2023-02-24T22:56:30.117Z,-23291.09
2023-02-24T22:58:33.292Z,-23289.97
2023-02-24T23:00:35.920Z,-23294.59
2023-02-24T23:02:39.183Z,-23289.81
2023-02-24T23:04:41.888Z,-23290.59
2023-02-24T23:06:47.185Z,-23297.13
2023-02-24T23:08:51.261Z,-23298.41
2023-02-24T23:10:54.643Z,-23298.25
2023-02-24T23:12:58.727Z,-23292.69
2023-02-24T23:15:01.404Z,-23292.69
2023-02-24T23:17:03.987Z,-23295.88
2023-02-24T23:19:08.626Z,-23297.78
2023-02-24T23:21:11.741Z,-23299.03
2023-02-24T23:23:14.418Z,-23298.09
2023-02-24T23:25:17.212Z,-23299.38
2023-02-24T23:27:21.281Z,-23291.72
2023-02-24T23:29:26.615Z,-23293.78
2023-02-24T23:31:29.817Z,-23296.19
2023-02-24T23:33:32.574Z,-23298.41
2023-02-24T23:35:35.343Z,-23297.78
2023-02-24T23:37:38.265Z,-23296.97
2023-02-24T23:39:40.941Z,-23294.59
2023-02-24T23:41:43.638Z,-23294.59
2023-02-24T23:43:46.342Z,-23291.72
2023-02-24T23:45:50.348Z,-23294.91
2023-02-24T23:47:53.443Z,-23299.38
2023-02-24T23:49:56.814Z,-23297.94
2023-02-24T23:51:59.592Z,-23300.31
2023-02-24T23:54:02.336Z,-23300.97
2023-02-24T23:56:09.394Z,-23297.47
2023-02-24T23:58:12.089Z,-23295.06
